OICI

Details ICAO OICI (IIL)
Name ILAM
Region Iran
Timezone Asia/Tehran (UTC+4.5)
Plans Departing 7
Arriving 6
Stats Elevation 4,404 ft / 1,342 m (AMSL)
Location 33.586607° 46.404781°
Runways 1
Magnetic Variation 4.577° E
Sunrise 2018-05-22 01:51:02 UTC / 2018-05-22 06:21:02 Local
Sunset 2018-05-22 15:53:54 UTC / 2018-05-22 20:23:54 Local
Advertisement - Login to hide

Runways

ID Width Length Bearing (true) Bearing (mag) Surface Threshold Offset Overrun Length
14 148 ft / 45 m 9,196 ft / 2,803 m 142.12° 137.54° Asphalt 0 ft / 0 m 0 ft / 0 m
32 148 ft / 45 m 9,196 ft / 2,803 m 322.13° 317.55° Asphalt 0 ft / 0 m 0 ft / 0 m

Map

Weather


0- 5 10 15 20 25 30 35+ Temperature / ° C

Clouds and Precipitation
Forecast for 2018-05-22 18:00 UTC. Updated an hour ago

Ground ~20,000 ft ~40,000 ft Winds

METAR

OICI 221800Z 00000KT 9999 SCT040 21/06 Q1020 A3013

TAF

TAF TAF OICI 221730Z 2218/2324 12004MPS 7000 FEW030CB SCT040 BKN100 TEMPO 2310/2318 28009MPS 5000 TSRA SCT030CB BKN035 OVC090

Frequencies

Tower 121.60 MHz INFO
Tower 118.80 MHz INFO
Warning: Do not use this data for real-world aviation or navigation. No guarantee of current accuracy is given.